sensor_id;sensor_type;location;lat;lon;timestamp;temperature;humidity
23156;DHT22;11746;50.876;4.246;2023-04-09T00:01:04;9.30;99.90
23156;DHT22;11746;50.876;4.246;2023-04-09T00:03:30;9.40;99.90
23156;DHT22;11746;50.876;4.246;2023-04-09T00:05:56;9.40;99.90
23156;DHT22;11746;50.876;4.246;2023-04-09T00:08:22;9.40;99.90
23156;DHT22;11746;50.876;4.246;2023-04-09T00:10:49;9.40;99.90
23156;DHT22;11746;50.876;4.246;2023-04-09T00:13:15;9.40;99.90
23156;DHT22;11746;50.876;4.246;2023-04-09T00:15:42;9.40;99.90
23156;DHT22;11746;50.876;4.246;2023-04-09T00:18:08;9.50;99.90
23156;DHT22;11746;50.876;4.246;2023-04-09T00:20:34;9.50;99.90
23156;DHT22;11746;50.876;4.246;2023-04-09T00:23:00;9.50;99.90
23156;DHT22;11746;50.876;4.246;2023-04-09T00:25:26;9.40;99.90
23156;DHT22;11746;50.876;4.246;2023-04-09T00:27:54;9.40;99.90
23156;DHT22;11746;50.876;4.246;2023-04-09T00:30:20;9.40;99.90
23156;DHT22;11746;50.876;4.246;2023-04-09T00:32:46;9.50;99.90
23156;DHT22;11746;50.876;4.246;2023-04-09T00:35:12;9.50;99.90
23156;DHT22;11746;50.876;4.246;2023-04-09T00:37:38;9.50;99.90
23156;DHT22;11746;50.876;4.246;2023-04-09T00:40:04;9.50;99.90
23156;DHT22;11746;50.876;4.246;2023-04-09T00:42:31;9.40;99.90
23156;DHT22;11746;50.876;4.246;2023-04-09T00:44:58;9.40;99.90
23156;DHT22;11746;50.876;4.246;2023-04-09T00:47:25;9.30;99.90
23156;DHT22;11746;50.876;4.246;2023-04-09T00:49:53;9.20;99.90
23156;DHT22;11746;50.876;4.246;2023-04-09T00:52:19;9.30;99.90
23156;DHT22;11746;50.876;4.246;2023-04-09T00:54:46;9.20;99.90
23156;DHT22;11746;50.876;4.246;2023-04-09T00:57:14;9.20;99.90
23156;DHT22;11746;50.876;4.246;2023-04-09T00:59:41;9.20;99.90
23156;DHT22;11746;50.876;4.246;2023-04-09T01:02:07;9.10;99.90
23156;DHT22;11746;50.876;4.246;2023-04-09T01:04:33;9.00;99.90
23156;DHT22;11746;50.876;4.246;2023-04-09T01:10:11;9.10;99.90
23156;DHT22;11746;50.876;4.246;2023-04-09T01:15:24;9.00;99.90
23156;DHT22;11746;50.876;4.246;2023-04-09T01:18:27;8.90;99.90
23156;DHT22;11746;50.876;4.246;2023-04-09T01:21:06;8.90;99.90
23156;DHT22;11746;50.876;4.246;2023-04-09T01:26:58;9.00;99.90
23156;DHT22;11746;50.876;4.246;2023-04-09T01:29:31;8.90;99.90
23156;DHT22;11746;50.876;4.246;2023-04-09T01:32:00;8.80;99.90
23156;DHT22;11746;50.876;4.246;2023-04-09T01:34:27;8.90;99.90
23156;DHT22;11746;50.876;4.246;2023-04-09T01:36:56;8.80;99.90
23156;DHT22;11746;50.876;4.246;2023-04-09T01:39:23;8.80;99.90
23156;DHT22;11746;50.876;4.246;2023-04-09T01:41:49;8.80;99.90
23156;DHT22;11746;50.876;4.246;2023-04-09T01:44:16;8.80;99.90
23156;DHT22;11746;50.876;4.246;2023-04-09T01:46:42;8.80;99.90
23156;DHT22;11746;50.876;4.246;2023-04-09T01:49:11;8.70;99.90
23156;DHT22;11746;50.876;4.246;2023-04-09T01:51:37;8.70;99.90
23156;DHT22;11746;50.876;4.246;2023-04-09T01:54:04;8.80;99.90
23156;DHT22;11746;50.876;4.246;2023-04-09T01:56:45;8.80;99.90
23156;DHT22;11746;50.876;4.246;2023-04-09T01:59:11;8.80;99.90
23156;DHT22;11746;50.876;4.246;2023-04-09T02:01:51;8.70;99.90
23156;DHT22;11746;50.876;4.246;2023-04-09T02:06:57;8.70;99.90
23156;DHT22;11746;50.876;4.246;2023-04-09T02:09:27;8.70;99.90
23156;DHT22;11746;50.876;4.246;2023-04-09T02:12:00;8.70;99.90
23156;DHT22;11746;50.876;4.246;2023-04-09T02:14:27;8.50;99.90
23156;DHT22;11746;50.876;4.246;2023-04-09T02:16:55;8.50;99.90
23156;DHT22;11746;50.876;4.246;2023-04-09T02:19:21;8.50;99.90
23156;DHT22;11746;50.876;4.246;2023-04-09T02:21:47;8.60;99.90
23156;DHT22;11746;50.876;4.246;2023-04-09T02:24:13;8.60;99.90
23156;DHT22;11746;50.876;4.246;2023-04-09T02:26:38;8.60;99.90
23156;DHT22;11746;50.876;4.246;2023-04-09T02:29:04;8.60;99.90
23156;DHT22;11746;50.876;4.246;2023-04-09T02:31:30;8.60;99.90
23156;DHT22;11746;50.876;4.246;2023-04-09T02:33:56;8.50;99.90
23156;DHT22;11746;50.876;4.246;2023-04-09T02:36:22;8.50;99.90
23156;DHT22;11746;50.876;4.246;2023-04-09T02:38:48;8.50;99.90
23156;DHT22;11746;50.876;4.246;2023-04-09T02:41:14;8.50;99.90
23156;DHT22;11746;50.876;4.246;2023-04-09T02:43:40;8.50;99.90
23156;DHT22;11746;50.876;4.246;2023-04-09T02:46:06;8.40;99.90
23156;DHT22;11746;50.876;4.246;2023-04-09T02:48:32;8.50;99.90
23156;DHT22;11746;50.876;4.246;2023-04-09T02:50:58;8.50;99.90
23156;DHT22;11746;50.876;4.246;2023-04-09T02:53:24;8.50;99.90
23156;DHT22;11746;50.876;4.246;2023-04-09T02:55:50;8.50;99.90
23156;DHT22;11746;50.876;4.246;2023-04-09T02:58:16;8.50;99.90
23156;DHT22;11746;50.876;4.246;2023-04-09T03:00:42;8.60;99.90
23156;DHT22;11746;50.876;4.246;2023-04-09T03:03:08;8.50;99.90
23156;DHT22;11746;50.876;4.246;2023-04-09T03:05:34;8.50;99.90
23156;DHT22;11746;50.876;4.246;2023-04-09T03:08:01;8.40;99.90
23156;DHT22;11746;50.876;4.246;2023-04-09T03:10:27;8.50;99.90
23156;DHT22;11746;50.876;4.246;2023-04-09T03:12:53;8.30;99.90
23156;DHT22;11746;50.876;4.246;2023-04-09T03:15:18;8.40;99.90
23156;DHT22;11746;50.876;4.246;2023-04-09T03:17:44;8.40;99.90
23156;DHT22;11746;50.876;4.246;2023-04-09T03:20:10;8.40;99.90
23156;DHT22;11746;50.876;4.246;2023-04-09T03:22:37;8.30;99.90
23156;DHT22;11746;50.876;4.246;2023-04-09T03:25:03;8.30;99.90
23156;DHT22;11746;50.876;4.246;2023-04-09T03:27:31;8.30;99.90
23156;DHT22;11746;50.876;4.246;2023-04-09T03:29:57;8.20;99.90
23156;DHT22;11746;50.876;4.246;2023-04-09T03:32:23;8.30;99.90
23156;DHT22;11746;50.876;4.246;2023-04-09T03:34:49;8.40;99.90
23156;DHT22;11746;50.876;4.246;2023-04-09T03:37:15;8.30;99.90
23156;DHT22;11746;50.876;4.246;2023-04-09T03:39:41;8.30;99.90
23156;DHT22;11746;50.876;4.246;2023-04-09T03:42:07;8.20;99.90
23156;DHT22;11746;50.876;4.246;2023-04-09T03:44:33;8.30;99.90
23156;DHT22;11746;50.876;4.246;2023-04-09T03:46:59;8.30;99.90
23156;DHT22;11746;50.876;4.246;2023-04-09T03:49:25;8.30;99.90
23156;DHT22;11746;50.876;4.246;2023-04-09T03:51:51;8.30;99.90
23156;DHT22;11746;50.876;4.246;2023-04-09T03:54:17;8.40;99.90
23156;DHT22;11746;50.876;4.246;2023-04-09T03:56:42;8.30;99.90
23156;DHT22;11746;50.876;4.246;2023-04-09T03:59:08;8.40;99.90
23156;DHT22;11746;50.876;4.246;2023-04-09T04:01:35;8.30;99.90
23156;DHT22;11746;50.876;4.246;2023-04-09T04:04:01;8.40;99.90
23156;DHT22;11746;50.876;4.246;2023-04-09T04:06:27;8.30;99.90
23156;DHT22;11746;50.876;4.246;2023-04-09T04:08:53;8.40;99.90
23156;DHT22;11746;50.876;4.246;2023-04-09T04:11:19;8.40;99.90
23156;DHT22;11746;50.876;4.246;2023-04-09T04:13:44;8.40;99.90
23156;DHT22;11746;50.876;4.246;2023-04-09T04:16:10;8.30;99.90
23156;DHT22;11746;50.876;4.246;2023-04-09T04:18:36;8.30;99.90
23156;DHT22;11746;50.876;4.246;2023-04-09T04:21:02;8.30;99.90
23156;DHT22;11746;50.876;4.246;2023-04-09T04:23:28;8.20;99.90
23156;DHT22;11746;50.876;4.246;2023-04-09T04:25:54;8.20;99.90
23156;DHT22;11746;50.876;4.246;2023-04-09T04:28:22;8.20;99.90
23156;DHT22;11746;50.876;4.246;2023-04-09T04:30:48;8.30;99.90
23156;DHT22;11746;50.876;4.246;2023-04-09T04:33:14;8.20;99.90
23156;DHT22;11746;50.876;4.246;2023-04-09T04:35:40;8.20;99.90
23156;DHT22;11746;50.876;4.246;2023-04-09T04:38:06;8.20;99.90
23156;DHT22;11746;50.876;4.246;2023-04-09T04:40:32;8.20;99.90
23156;DHT22;11746;50.876;4.246;2023-04-09T04:42:58;8.20;99.90
23156;DHT22;11746;50.876;4.246;2023-04-09T04:45:23;8.10;99.90
23156;DHT22;11746;50.876;4.246;2023-04-09T04:47:49;8.20;99.90
23156;DHT22;11746;50.876;4.246;2023-04-09T04:50:15;8.20;99.90
23156;DHT22;11746;50.876;4.246;2023-04-09T04:52:41;8.20;99.90
23156;DHT22;11746;50.876;4.246;2023-04-09T04:55:07;8.20;99.90
23156;DHT22;11746;50.876;4.246;2023-04-09T04:57:33;8.30;99.90
23156;DHT22;11746;50.876;4.246;2023-04-09T05:00:01;8.30;99.90
23156;DHT22;11746;50.876;4.246;2023-04-09T05:02:27;8.30;99.90
23156;DHT22;11746;50.876;4.246;2023-04-09T05:04:53;8.20;99.90
23156;DHT22;11746;50.876;4.246;2023-04-09T05:07:19;8.30;99.90
23156;DHT22;11746;50.876;4.246;2023-04-09T05:09:45;8.20;99.90
23156;DHT22;11746;50.876;4.246;2023-04-09T05:12:11;8.40;99.90
23156;DHT22;11746;50.876;4.246;2023-04-09T05:14:38;8.20;99.90
23156;DHT22;11746;50.876;4.246;2023-04-09T05:17:04;8.30;99.90
23156;DHT22;11746;50.876;4.246;2023-04-09T05:19:29;8.30;99.90
23156;DHT22;11746;50.876;4.246;2023-04-09T05:21:55;8.30;99.90
23156;DHT22;11746;50.876;4.246;2023-04-09T05:24:24;8.30;99.90
23156;DHT22;11746;50.876;4.246;2023-04-09T05:26:49;8.40;99.90
23156;DHT22;11746;50.876;4.246;2023-04-09T05:29:15;8.30;99.90
23156;DHT22;11746;50.876;4.246;2023-04-09T05:31:41;8.40;99.90
23156;DHT22;11746;50.876;4.246;2023-04-09T05:34:07;8.40;99.90
23156;DHT22;11746;50.876;4.246;2023-04-09T05:36:33;8.40;99.90
23156;DHT22;11746;50.876;4.246;2023-04-09T05:38:59;8.30;99.90
23156;DHT22;11746;50.876;4.246;2023-04-09T05:41:25;8.40;99.90
23156;DHT22;11746;50.876;4.246;2023-04-09T05:43:51;8.40;99.90
23156;DHT22;11746;50.876;4.246;2023-04-09T05:46:17;8.30;99.90
23156;DHT22;11746;50.876;4.246;2023-04-09T05:48:43;8.30;99.90
23156;DHT22;11746;50.876;4.246;2023-04-09T05:51:09;8.30;99.90
23156;DHT22;11746;50.876;4.246;2023-04-09T05:53:35;8.40;99.90
23156;DHT22;11746;50.876;4.246;2023-04-09T05:56:01;8.50;99.90
23156;DHT22;11746;50.876;4.246;2023-04-09T05:58:30;8.50;99.90
23156;DHT22;11746;50.876;4.246;2023-04-09T06:00:55;8.50;99.90
23156;DHT22;11746;50.876;4.246;2023-04-09T06:03:21;8.80;99.90
23156;DHT22;11746;50.876;4.246;2023-04-09T06:05:47;8.80;99.90
23156;DHT22;11746;50.876;4.246;2023-04-09T06:08:13;8.70;99.90
23156;DHT22;11746;50.876;4.246;2023-04-09T06:10:39;8.70;99.90
23156;DHT22;11746;50.876;4.246;2023-04-09T06:13:05;8.80;99.90
23156;DHT22;11746;50.876;4.246;2023-04-09T06:15:31;8.90;99.90
23156;DHT22;11746;50.876;4.246;2023-04-09T06:17:57;9.00;99.90
23156;DHT22;11746;50.876;4.246;2023-04-09T06:20:23;9.00;99.90
23156;DHT22;11746;50.876;4.246;2023-04-09T06:22:49;9.10;99.90
23156;DHT22;11746;50.876;4.246;2023-04-09T06:25:15;9.40;99.90
23156;DHT22;11746;50.876;4.246;2023-04-09T06:27:42;9.30;99.90
23156;DHT22;11746;50.876;4.246;2023-04-09T06:30:09;9.40;99.90
23156;DHT22;11746;50.876;4.246;2023-04-09T06:32:35;9.50;99.90
23156;DHT22;11746;50.876;4.246;2023-04-09T06:35:01;9.50;99.90
23156;DHT22;11746;50.876;4.246;2023-04-09T06:37:26;9.40;99.90
23156;DHT22;11746;50.876;4.246;2023-04-09T06:39:52;9.50;99.90
23156;DHT22;11746;50.876;4.246;2023-04-09T06:42:18;9.40;99.90
23156;DHT22;11746;50.876;4.246;2023-04-09T06:44:45;9.50;99.90
23156;DHT22;11746;50.876;4.246;2023-04-09T06:47:10;9.60;99.90
23156;DHT22;11746;50.876;4.246;2023-04-09T06:49:36;9.60;99.90
23156;DHT22;11746;50.876;4.246;2023-04-09T06:52:03;9.60;99.90
23156;DHT22;11746;50.876;4.246;2023-04-09T06:54:29;9.80;99.90
23156;DHT22;11746;50.876;4.246;2023-04-09T06:56:55;10.00;99.90
23156;DHT22;11746;50.876;4.246;2023-04-09T06:59:21;9.90;99.90
23156;DHT22;11746;50.876;4.246;2023-04-09T07:01:47;10.00;99.90
23156;DHT22;11746;50.876;4.246;2023-04-09T07:04:13;10.10;99.90
23156;DHT22;11746;50.876;4.246;2023-04-09T07:06:38;10.10;99.90
23156;DHT22;11746;50.876;4.246;2023-04-09T07:09:05;10.10;99.90
23156;DHT22;11746;50.876;4.246;2023-04-09T07:11:31;10.10;99.90
23156;DHT22;11746;50.876;4.246;2023-04-09T07:13:58;10.20;99.90
23156;DHT22;11746;50.876;4.246;2023-04-09T07:16:24;10.40;99.90
23156;DHT22;11746;50.876;4.246;2023-04-09T07:18:50;10.50;99.90
23156;DHT22;11746;50.876;4.246;2023-04-09T07:21:16;10.60;99.90
23156;DHT22;11746;50.876;4.246;2023-04-09T07:23:42;10.70;99.90
23156;DHT22;11746;50.876;4.246;2023-04-09T07:26:08;10.60;99.90
23156;DHT22;11746;50.876;4.246;2023-04-09T07:28:34;10.80;99.90
23156;DHT22;11746;50.876;4.246;2023-04-09T07:31:01;10.80;99.90
23156;DHT22;11746;50.876;4.246;2023-04-09T07:33:29;10.80;99.90
23156;DHT22;11746;50.876;4.246;2023-04-09T07:35:55;10.90;99.90
23156;DHT22;11746;50.876;4.246;2023-04-09T07:38:22;11.00;99.90
23156;DHT22;11746;50.876;4.246;2023-04-09T07:40:48;11.00;99.90
23156;DHT22;11746;50.876;4.246;2023-04-09T07:43:16;11.10;99.90
23156;DHT22;11746;50.876;4.246;2023-04-09T07:45:43;11.10;99.90
23156;DHT22;11746;50.876;4.246;2023-04-09T07:48:09;11.10;99.90
23156;DHT22;11746;50.876;4.246;2023-04-09T07:50:35;11.30;99.90
23156;DHT22;11746;50.876;4.246;2023-04-09T07:53:02;11.30;99.90
23156;DHT22;11746;50.876;4.246;2023-04-09T07:55:28;11.40;99.90
23156;DHT22;11746;50.876;4.246;2023-04-09T07:57:54;11.50;99.90
23156;DHT22;11746;50.876;4.246;2023-04-09T08:00:20;11.40;99.90
23156;DHT22;11746;50.876;4.246;2023-04-09T08:02:46;11.40;99.90
23156;DHT22;11746;50.876;4.246;2023-04-09T08:05:12;11.60;99.90
23156;DHT22;11746;50.876;4.246;2023-04-09T08:07:37;11.70;99.90
23156;DHT22;11746;50.876;4.246;2023-04-09T08:10:05;11.80;99.90
23156;DHT22;11746;50.876;4.246;2023-04-09T08:12:31;11.90;99.90
23156;DHT22;11746;50.876;4.246;2023-04-09T08:14:57;11.80;99.90
23156;DHT22;11746;50.876;4.246;2023-04-09T08:17:23;11.80;99.90
23156;DHT22;11746;50.876;4.246;2023-04-09T08:19:49;11.90;99.90
23156;DHT22;11746;50.876;4.246;2023-04-09T08:22:15;12.20;99.90
23156;DHT22;11746;50.876;4.246;2023-04-09T08:24:41;12.30;99.90
23156;DHT22;11746;50.876;4.246;2023-04-09T08:27:08;12.40;99.90
23156;DHT22;11746;50.876;4.246;2023-04-09T08:29:34;12.40;99.90
23156;DHT22;11746;50.876;4.246;2023-04-09T08:32:00;12.40;99.90
23156;DHT22;11746;50.876;4.246;2023-04-09T08:34:26;12.50;99.90
23156;DHT22;11746;50.876;4.246;2023-04-09T08:36:52;12.50;99.90
23156;DHT22;11746;50.876;4.246;2023-04-09T08:39:18;12.60;99.90
23156;DHT22;11746;50.876;4.246;2023-04-09T08:41:45;12.70;99.90
23156;DHT22;11746;50.876;4.246;2023-04-09T08:44:13;12.60;99.90
23156;DHT22;11746;50.876;4.246;2023-04-09T08:46:39;12.60;99.90
23156;DHT22;11746;50.876;4.246;2023-04-09T08:49:04;12.60;99.90
23156;DHT22;11746;50.876;4.246;2023-04-09T08:51:33;12.50;99.90
23156;DHT22;11746;50.876;4.246;2023-04-09T08:54:00;12.00;99.90
23156;DHT22;11746;50.876;4.246;2023-04-09T08:56:26;11.80;99.90
23156;DHT22;11746;50.876;4.246;2023-04-09T08:58:53;11.60;99.90
23156;DHT22;11746;50.876;4.246;2023-04-09T09:01:29;11.60;99.90
23156;DHT22;11746;50.876;4.246;2023-04-09T09:03:59;11.70;99.90
23156;DHT22;11746;50.876;4.246;2023-04-09T09:06:27;11.90;99.90
23156;DHT22;11746;50.876;4.246;2023-04-09T09:09:14;12.00;99.90
23156;DHT22;11746;50.876;4.246;2023-04-09T09:11:46;12.10;99.90
23156;DHT22;11746;50.876;4.246;2023-04-09T09:14:14;12.10;99.90
23156;DHT22;11746;50.876;4.246;2023-04-09T09:17:02;12.20;99.90
23156;DHT22;11746;50.876;4.246;2023-04-09T09:19:30;12.20;99.90
23156;DHT22;11746;50.876;4.246;2023-04-09T09:22:05;12.20;99.90
23156;DHT22;11746;50.876;4.246;2023-04-09T09:24:33;12.30;99.90
23156;DHT22;11746;50.876;4.246;2023-04-09T09:27:00;12.60;99.90
23156;DHT22;11746;50.876;4.246;2023-04-09T09:29:27;12.70;99.90
23156;DHT22;11746;50.876;4.246;2023-04-09T09:31:54;12.90;99.90
23156;DHT22;11746;50.876;4.246;2023-04-09T09:34:22;12.90;99.90
23156;DHT22;11746;50.876;4.246;2023-04-09T09:36:48;13.00;99.90
23156;DHT22;11746;50.876;4.246;2023-04-09T09:39:15;12.80;99.90
23156;DHT22;11746;50.876;4.246;2023-04-09T09:41:43;12.80;99.90
23156;DHT22;11746;50.876;4.246;2023-04-09T09:44:11;13.00;99.90
23156;DHT22;11746;50.876;4.246;2023-04-09T09:46:39;13.10;99.90
23156;DHT22;11746;50.876;4.246;2023-04-09T09:49:06;13.10;99.90
23156;DHT22;11746;50.876;4.246;2023-04-09T09:51:34;13.20;99.90
23156;DHT22;11746;50.876;4.246;2023-04-09T09:54:02;13.20;99.90
23156;DHT22;11746;50.876;4.246;2023-04-09T09:56:34;13.20;99.90
23156;DHT22;11746;50.876;4.246;2023-04-09T09:59:18;13.20;99.90
23156;DHT22;11746;50.876;4.246;2023-04-09T10:01:46;13.30;99.90
23156;DHT22;11746;50.876;4.246;2023-04-09T10:04:14;13.40;99.90
23156;DHT22;11746;50.876;4.246;2023-04-09T10:06:44;13.60;99.90
23156;DHT22;11746;50.876;4.246;2023-04-09T10:09:10;13.60;99.90
23156;DHT22;11746;50.876;4.246;2023-04-09T10:11:38;13.70;99.90
23156;DHT22;11746;50.876;4.246;2023-04-09T10:14:08;13.90;99.90
23156;DHT22;11746;50.876;4.246;2023-04-09T10:16:35;13.90;99.90
23156;DHT22;11746;50.876;4.246;2023-04-09T10:19:01;14.10;99.90
23156;DHT22;11746;50.876;4.246;2023-04-09T10:21:53;14.10;99.90
23156;DHT22;11746;50.876;4.246;2023-04-09T10:24:21;14.20;99.90
23156;DHT22;11746;50.876;4.246;2023-04-09T10:26:47;14.30;99.90
23156;DHT22;11746;50.876;4.246;2023-04-09T10:29:14;14.40;99.90
23156;DHT22;11746;50.876;4.246;2023-04-09T10:31:53;14.50;99.90
23156;DHT22;11746;50.876;4.246;2023-04-09T10:34:22;14.60;99.90
23156;DHT22;11746;50.876;4.246;2023-04-09T10:37:20;15.00;99.90
23156;DHT22;11746;50.876;4.246;2023-04-09T10:39:47;15.30;99.90
23156;DHT22;11746;50.876;4.246;2023-04-09T10:42:18;15.40;99.90
23156;DHT22;11746;50.876;4.246;2023-04-09T10:44:46;15.60;99.90
23156;DHT22;11746;50.876;4.246;2023-04-09T10:47:33;15.60;99.90
23156;DHT22;11746;50.876;4.246;2023-04-09T10:50:20;15.60;99.90
23156;DHT22;11746;50.876;4.246;2023-04-09T10:52:50;15.50;99.90
23156;DHT22;11746;50.876;4.246;2023-04-09T10:58:06;15.40;99.90
23156;DHT22;11746;50.876;4.246;2023-04-09T11:00:36;15.50;99.90
23156;DHT22;11746;50.876;4.246;2023-04-09T11:03:18;15.40;99.90
23156;DHT22;11746;50.876;4.246;2023-04-09T11:05:49;15.50;99.90
23156;DHT22;11746;50.876;4.246;2023-04-09T11:08:17;15.70;99.90
23156;DHT22;11746;50.876;4.246;2023-04-09T11:10:44;15.80;99.90
23156;DHT22;11746;50.876;4.246;2023-04-09T11:13:13;15.70;99.90
23156;DHT22;11746;50.876;4.246;2023-04-09T11:15:39;15.80;99.90
23156;DHT22;11746;50.876;4.246;2023-04-09T11:18:06;15.90;99.90
23156;DHT22;11746;50.876;4.246;2023-04-09T11:20:34;16.30;99.90
23156;DHT22;11746;50.876;4.246;2023-04-09T11:23:01;16.60;99.90
23156;DHT22;11746;50.876;4.246;2023-04-09T11:25:31;16.60;99.90
23156;DHT22;11746;50.876;4.246;2023-04-09T11:27:58;16.40;99.90
23156;DHT22;11746;50.876;4.246;2023-04-09T11:30:24;16.50;99.90
23156;DHT22;11746;50.876;4.246;2023-04-09T11:32:50;16.70;99.90
23156;DHT22;11746;50.876;4.246;2023-04-09T11:35:18;16.80;99.90
23156;DHT22;11746;50.876;4.246;2023-04-09T11:37:45;16.90;99.90
23156;DHT22;11746;50.876;4.246;2023-04-09T11:40:16;17.00;99.90
23156;DHT22;11746;50.876;4.246;2023-04-09T11:42:43;17.10;99.90
23156;DHT22;11746;50.876;4.246;2023-04-09T11:45:10;17.50;99.90
23156;DHT22;11746;50.876;4.246;2023-04-09T11:47:39;17.80;99.90
23156;DHT22;11746;50.876;4.246;2023-04-09T11:50:09;18.00;99.90
23156;DHT22;11746;50.876;4.246;2023-04-09T11:52:35;17.70;99.90
23156;DHT22;11746;50.876;4.246;2023-04-09T11:55:02;17.60;99.90
23156;DHT22;11746;50.876;4.246;2023-04-09T11:57:45;17.30;99.90
23156;DHT22;11746;50.876;4.246;2023-04-09T12:00:12;17.40;99.90
23156;DHT22;11746;50.876;4.246;2023-04-09T12:02:41;17.70;99.90
23156;DHT22;11746;50.876;4.246;2023-04-09T12:05:28;17.90;99.90
23156;DHT22;11746;50.876;4.246;2023-04-09T12:08:02;18.10;99.90
23156;DHT22;11746;50.876;4.246;2023-04-09T12:10:34;18.10;99.90
23156;DHT22;11746;50.876;4.246;2023-04-09T12:15:40;17.70;99.90
23156;DHT22;11746;50.876;4.246;2023-04-09T12:18:11;17.70;99.90
23156;DHT22;11746;50.876;4.246;2023-04-09T12:20:42;17.80;99.90
23156;DHT22;11746;50.876;4.246;2023-04-09T12:23:09;17.80;99.90
23156;DHT22;11746;50.876;4.246;2023-04-09T12:25:40;17.60;99.90
23156;DHT22;11746;50.876;4.246;2023-04-09T12:28:07;17.60;99.90
23156;DHT22;11746;50.876;4.246;2023-04-09T12:30:33;17.50;99.90
23156;DHT22;11746;50.876;4.246;2023-04-09T12:33:00;17.60;99.90
23156;DHT22;11746;50.876;4.246;2023-04-09T12:35:27;17.80;99.90
23156;DHT22;11746;50.876;4.246;2023-04-09T12:37:53;18.00;99.90
23156;DHT22;11746;50.876;4.246;2023-04-09T12:40:20;17.80;99.90
23156;DHT22;11746;50.876;4.246;2023-04-09T12:42:46;18.10;99.90
23156;DHT22;11746;50.876;4.246;2023-04-09T12:45:14;18.70;99.90
23156;DHT22;11746;50.876;4.246;2023-04-09T12:47:41;18.30;99.90
23156;DHT22;11746;50.876;4.246;2023-04-09T12:50:08;18.40;99.90
23156;DHT22;11746;50.876;4.246;2023-04-09T12:52:35;18.40;99.90
23156;DHT22;11746;50.876;4.246;2023-04-09T12:55:02;18.10;99.90
23156;DHT22;11746;50.876;4.246;2023-04-09T12:57:28;18.00;99.90
23156;DHT22;11746;50.876;4.246;2023-04-09T12:59:54;17.90;99.90
23156;DHT22;11746;50.876;4.246;2023-04-09T13:02:20;17.90;99.90
23156;DHT22;11746;50.876;4.246;2023-04-09T13:04:47;18.30;99.90
23156;DHT22;11746;50.876;4.246;2023-04-09T13:07:15;18.40;99.90
23156;DHT22;11746;50.876;4.246;2023-04-09T13:09:42;18.20;99.90
23156;DHT22;11746;50.876;4.246;2023-04-09T13:12:08;18.00;99.90
23156;DHT22;11746;50.876;4.246;2023-04-09T13:14:34;18.40;99.90
23156;DHT22;11746;50.876;4.246;2023-04-09T13:17:00;19.30;99.90
23156;DHT22;11746;50.876;4.246;2023-04-09T13:19:26;18.90;99.90
23156;DHT22;11746;50.876;4.246;2023-04-09T13:21:52;18.90;99.90
23156;DHT22;11746;50.876;4.246;2023-04-09T13:24:18;19.80;99.90
23156;DHT22;11746;50.876;4.246;2023-04-09T13:26:44;19.90;98.90
23156;DHT22;11746;50.876;4.246;2023-04-09T13:29:10;20.00;98.20
23156;DHT22;11746;50.876;4.246;2023-04-09T13:31:36;20.50;98.60
23156;DHT22;11746;50.876;4.246;2023-04-09T13:34:02;20.80;95.30
23156;DHT22;11746;50.876;4.246;2023-04-09T13:36:29;20.30;97.00
23156;DHT22;11746;50.876;4.246;2023-04-09T13:38:56;20.40;97.40
23156;DHT22;11746;50.876;4.246;2023-04-09T13:41:29;20.10;97.20
23156;DHT22;11746;50.876;4.246;2023-04-09T13:43:56;19.90;95.50
23156;DHT22;11746;50.876;4.246;2023-04-09T13:46:21;19.40;95.70
23156;DHT22;11746;50.876;4.246;2023-04-09T13:48:47;19.80;97.40
23156;DHT22;11746;50.876;4.246;2023-04-09T13:51:13;20.20;96.50
23156;DHT22;11746;50.876;4.246;2023-04-09T13:53:39;20.70;95.10
23156;DHT22;11746;50.876;4.246;2023-04-09T13:56:06;21.40;94.40
23156;DHT22;11746;50.876;4.246;2023-04-09T13:58:32;21.40;91.00
23156;DHT22;11746;50.876;4.246;2023-04-09T14:00:58;20.90;93.10
23156;DHT22;11746;50.876;4.246;2023-04-09T14:03:24;21.40;91.70
23156;DHT22;11746;50.876;4.246;2023-04-09T14:05:50;21.60;88.00
23156;DHT22;11746;50.876;4.246;2023-04-09T14:08:16;21.10;91.00
23156;DHT22;11746;50.876;4.246;2023-04-09T14:10:42;20.60;92.10
23156;DHT22;11746;50.876;4.246;2023-04-09T14:13:08;21.50;91.30
23156;DHT22;11746;50.876;4.246;2023-04-09T14:15:36;21.70;89.10
23156;DHT22;11746;50.876;4.246;2023-04-09T14:18:02;22.00;85.20
23156;DHT22;11746;50.876;4.246;2023-04-09T14:20:28;20.80;89.10
23156;DHT22;11746;50.876;4.246;2023-04-09T14:22:54;20.00;91.00
23156;DHT22;11746;50.876;4.246;2023-04-09T14:25:20;19.90;92.70
23156;DHT22;11746;50.876;4.246;2023-04-09T14:27:46;20.10;91.80
23156;DHT22;11746;50.876;4.246;2023-04-09T14:30:12;20.30;91.10
23156;DHT22;11746;50.876;4.246;2023-04-09T14:32:38;20.40;92.40
23156;DHT22;11746;50.876;4.246;2023-04-09T14:35:05;20.80;91.10
23156;DHT22;11746;50.876;4.246;2023-04-09T14:37:31;21.30;92.10
23156;DHT22;11746;50.876;4.246;2023-04-09T14:39:56;22.10;85.60
23156;DHT22;11746;50.876;4.246;2023-04-09T14:42:22;22.20;83.30
23156;DHT22;11746;50.876;4.246;2023-04-09T14:44:48;22.70;80.70
23156;DHT22;11746;50.876;4.246;2023-04-09T14:47:14;23.40;77.40
23156;DHT22;11746;50.876;4.246;2023-04-09T14:49:40;24.00;76.80
23156;DHT22;11746;50.876;4.246;2023-04-09T14:52:06;24.30;72.80
23156;DHT22;11746;50.876;4.246;2023-04-09T14:54:32;23.60;74.00
23156;DHT22;11746;50.876;4.246;2023-04-09T14:56:58;23.70;74.20
23156;DHT22;11746;50.876;4.246;2023-04-09T14:59:27;24.10;73.20
23156;DHT22;11746;50.876;4.246;2023-04-09T15:01:52;23.40;69.60
23156;DHT22;11746;50.876;4.246;2023-04-09T15:04:18;23.10;68.30
23156;DHT22;11746;50.876;4.246;2023-04-09T15:06:44;23.60;69.10
23156;DHT22;11746;50.876;4.246;2023-04-09T15:09:10;24.60;66.60
23156;DHT22;11746;50.876;4.246;2023-04-09T15:11:36;25.40;63.10
23156;DHT22;11746;50.876;4.246;2023-04-09T15:14:02;25.30;62.30
23156;DHT22;11746;50.876;4.246;2023-04-09T15:16:28;25.10;60.40
23156;DHT22;11746;50.876;4.246;2023-04-09T15:18:56;25.90;60.20
23156;DHT22;11746;50.876;4.246;2023-04-09T15:21:23;26.70;58.00
23156;DHT22;11746;50.876;4.246;2023-04-09T15:23:50;27.40;56.40
23156;DHT22;11746;50.876;4.246;2023-04-09T15:26:16;28.30;55.20
23156;DHT22;11746;50.876;4.246;2023-04-09T15:28:41;28.60;53.90
23156;DHT22;11746;50.876;4.246;2023-04-09T15:31:07;28.50;55.90
23156;DHT22;11746;50.876;4.246;2023-04-09T15:33:33;28.10;56.40
23156;DHT22;11746;50.876;4.246;2023-04-09T15:35:59;27.50;56.90
23156;DHT22;11746;50.876;4.246;2023-04-09T15:38:25;27.30;56.90
23156;DHT22;11746;50.876;4.246;2023-04-09T15:40:53;27.90;57.10
23156;DHT22;11746;50.876;4.246;2023-04-09T15:43:19;28.10;56.70
23156;DHT22;11746;50.876;4.246;2023-04-09T15:45:45;28.30;55.40
23156;DHT22;11746;50.876;4.246;2023-04-09T15:48:13;28.40;53.70
23156;DHT22;11746;50.876;4.246;2023-04-09T15:50:38;27.90;55.10
23156;DHT22;11746;50.876;4.246;2023-04-09T15:53:04;27.80;54.10
23156;DHT22;11746;50.876;4.246;2023-04-09T15:55:31;26.90;54.80